Terminal Aerodrome Forecast
Issued by NWS

Home | Current Version | Previous Version | Text Only | Print | Product List | Glossary On
Versions: 1 2 3 4 5 6 7 8 9 10 11 12 13 14 15 16 17 18 19 20 21
886
FTUS46 KSEW 300523
TAFPAE
TAF
KPAE 300523Z 3006/0106 VRB03KT P6SM SCT250
     FM301400 20005KT P6SM BKN008
     FM301800 20005KT P6SM SCT012
     FM301900 23007KT P6SM SCT250
     FM010400 20004KT P6SM BKN080 BKN200=

USA.gov is the U.S. government's official web portal to all federal, state and local government web resources and services.